sensor_id;sensor_type;location;lat;lon;timestamp;pressure;altitude;pressure_sealevel;temperature;humidity
61645;BME280;47553;52.428;13.382;2022-11-18T00:01:57;99766.66;;;1.14;100.00
61645;BME280;47553;52.428;13.382;2022-11-18T00:03:59;99746.72;;;1.08;100.00
61645;BME280;47553;52.428;13.382;2022-11-18T00:06:01;99762.09;;;1.19;100.00
61645;BME280;47553;52.428;13.382;2022-11-18T00:08:03;99773.72;;;1.12;100.00
61645;BME280;47553;52.428;13.382;2022-11-18T00:10:05;99767.28;;;0.96;100.00
61645;BME280;47553;52.428;13.382;2022-11-18T00:12:08;99761.94;;;0.99;100.00
61645;BME280;47553;52.428;13.382;2022-11-18T00:14:12;99760.91;;;1.03;100.00
61645;BME280;47553;52.428;13.382;2022-11-18T00:16:14;99768.59;;;1.09;100.00
61645;BME280;47553;52.428;13.382;2022-11-18T00:18:15;99770.19;;;1.13;100.00
61645;BME280;47553;52.428;13.382;2022-11-18T00:20:17;99766.34;;;1.23;100.00
61645;BME280;47553;52.428;13.382;2022-11-18T00:22:19;99770.28;;;1.10;100.00
61645;BME280;47553;52.428;13.382;2022-11-18T00:24:24;99766.13;;;1.04;100.00
61645;BME280;47553;52.428;13.382;2022-11-18T00:26:25;99774.16;;;1.00;100.00
61645;BME280;47553;52.428;13.382;2022-11-18T00:28:29;99779.72;;;0.90;100.00
61645;BME280;47553;52.428;13.382;2022-11-18T00:30:30;99762.03;;;0.96;100.00
61645;BME280;47553;52.428;13.382;2022-11-18T00:32:32;99777.78;;;0.96;100.00
61645;BME280;47553;52.428;13.382;2022-11-18T00:34:33;99781.31;;;0.95;100.00
61645;BME280;47553;52.428;13.382;2022-11-18T00:36:35;99786.59;;;0.95;100.00
61645;BME280;47553;52.428;13.382;2022-11-18T00:38:37;99779.81;;;0.87;100.00
61645;BME280;47553;52.428;13.382;2022-11-18T00:40:38;99784.16;;;0.88;100.00
61645;BME280;47553;52.428;13.382;2022-11-18T00:42:40;99784.88;;;0.94;100.00
61645;BME280;47553;52.428;13.382;2022-11-18T00:44:43;99779.81;;;0.87;100.00
61645;BME280;47553;52.428;13.382;2022-11-18T00:46:45;99779.47;;;0.98;100.00
61645;BME280;47553;52.428;13.382;2022-11-18T00:48:46;99788.19;;;0.99;100.00
61645;BME280;47553;52.428;13.382;2022-11-18T00:50:48;99777.59;;;1.02;100.00
61645;BME280;47553;52.428;13.382;2022-11-18T00:52:50;99782.63;;;1.08;100.00
61645;BME280;47553;52.428;13.382;2022-11-18T00:54:54;99778.22;;;1.08;100.00
61645;BME280;47553;52.428;13.382;2022-11-18T00:56:56;99773.50;;;1.18;100.00
61645;BME280;47553;52.428;13.382;2022-11-18T00:58:58;99774.91;;;1.03;100.00
61645;BME280;47553;52.428;13.382;2022-11-18T01:01:02;99786.53;;;0.96;100.00
61645;BME280;47553;52.428;13.382;2022-11-18T01:03:03;99780.47;;;0.94;100.00
61645;BME280;47553;52.428;13.382;2022-11-18T01:05:05;99792.25;;;0.82;100.00
61645;BME280;47553;52.428;13.382;2022-11-18T01:07:07;99773.66;;;0.88;100.00
61645;BME280;47553;52.428;13.382;2022-11-18T01:09:09;99772.75;;;0.89;100.00
61645;BME280;47553;52.428;13.382;2022-11-18T01:11:13;99787.00;;;0.82;100.00
61645;BME280;47553;52.428;13.382;2022-11-18T01:13:16;99776.38;;;0.85;100.00
61645;BME280;47553;52.428;13.382;2022-11-18T01:15:18;99774.19;;;0.73;100.00
61645;BME280;47553;52.428;13.382;2022-11-18T01:17:21;99784.38;;;0.82;100.00
61645;BME280;47553;52.428;13.382;2022-11-18T01:19:23;99779.72;;;0.90;100.00
61645;BME280;47553;52.428;13.382;2022-11-18T01:21:25;99783.66;;;0.77;100.00
61645;BME280;47553;52.428;13.382;2022-11-18T01:23:26;99787.91;;;0.81;100.00
61645;BME280;47553;52.428;13.382;2022-11-18T01:25:29;99793.25;;;0.78;100.00
61645;BME280;47553;52.428;13.382;2022-11-18T01:27:31;99787.41;;;0.70;100.00
61645;BME280;47553;52.428;13.382;2022-11-18T01:29:32;99790.63;;;0.78;100.00
61645;BME280;47553;52.428;13.382;2022-11-18T01:31:34;99780.53;;;0.66;100.00
61645;BME280;47553;52.428;13.382;2022-11-18T01:33:37;99779.38;;;0.75;100.00
61645;BME280;47553;52.428;13.382;2022-11-18T01:35:42;99795.19;;;0.73;100.00
61645;BME280;47553;52.428;13.382;2022-11-18T01:37:44;99782.00;;;0.75;100.00
61645;BME280;47553;52.428;13.382;2022-11-18T01:39:45;99793.97;;;0.83;100.00
61645;BME280;47553;52.428;13.382;2022-11-18T01:41:47;99800.38;;;0.75;100.00
61645;BME280;47553;52.428;13.382;2022-11-18T01:43:52;99783.75;;;0.74;100.00
61645;BME280;47553;52.428;13.382;2022-11-18T01:45:54;99782.97;;;0.72;100.00
61645;BME280;47553;52.428;13.382;2022-11-18T01:47:59;99782.31;;;0.66;100.00
61645;BME280;47553;52.428;13.382;2022-11-18T01:50:05;99795.47;;;0.64;100.00
61645;BME280;47553;52.428;13.382;2022-11-18T01:52:07;99796.78;;;0.51;100.00
61645;BME280;47553;52.428;13.382;2022-11-18T01:54:13;99782.31;;;0.38;100.00
61645;BME280;47553;52.428;13.382;2022-11-18T01:56:20;99797.59;;;0.53;100.00
61645;BME280;47553;52.428;13.382;2022-11-18T01:58:27;99787.78;;;0.30;100.00
61645;BME280;47553;52.428;13.382;2022-11-18T02:00:29;99787.47;;;0.41;100.00
61645;BME280;47553;52.428;13.382;2022-11-18T02:02:32;99795.31;;;0.41;100.00
61645;BME280;47553;52.428;13.382;2022-11-18T02:04:37;99795.38;;;0.39;100.00
61645;BME280;47553;52.428;13.382;2022-11-18T02:06:40;99795.72;;;0.28;100.00
61645;BME280;47553;52.428;13.382;2022-11-18T02:08:42;99801.16;;;0.22;100.00
61645;BME280;47553;52.428;13.382;2022-11-18T02:10:45;99789.84;;;0.20;100.00
61645;BME280;47553;52.428;13.382;2022-11-18T02:12:48;99789.03;;;0.18;100.00
61645;BME280;47553;52.428;13.382;2022-11-18T02:14:50;99794.09;;;0.24;100.00
61645;BME280;47553;52.428;13.382;2022-11-18T02:17:03;99799.44;;;0.21;100.00
61645;BME280;47553;52.428;13.382;2022-11-18T02:19:19;99797.63;;;0.23;100.00
61645;BME280;47553;52.428;13.382;2022-11-18T02:21:32;99790.47;;;0.28;100.00
61645;BME280;47553;52.428;13.382;2022-11-18T02:24:11;99791.56;;;0.21;100.00
61645;BME280;47553;52.428;13.382;2022-11-18T02:26:43;99796.09;;;0.16;100.00
61645;BME280;47553;52.428;13.382;2022-11-18T02:29:02;99796.09;;;0.16;100.00
61645;BME280;47553;52.428;13.382;2022-11-18T02:31:09;99805.06;;;0.09;100.00
61645;BME280;47553;52.428;13.382;2022-11-18T02:33:17;99808.38;;;0.14;100.00
61645;BME280;47553;52.428;13.382;2022-11-18T02:35:27;99801.16;;;0.22;100.00
61645;BME280;47553;52.428;13.382;2022-11-18T02:37:33;99792.50;;;0.19;100.00
61645;BME280;47553;52.428;13.382;2022-11-18T02:39:38;99809.44;;;0.37;100.00
61645;BME280;47553;52.428;13.382;2022-11-18T02:41:45;99798.53;;;0.22;100.00
61645;BME280;47553;52.428;13.382;2022-11-18T02:43:51;99811.91;;;0.13;100.00
61645;BME280;47553;52.428;13.382;2022-11-18T02:45:59;99802.34;;;0.12;100.00
61645;BME280;47553;52.428;13.382;2022-11-18T02:48:05;99818.78;;;0.17;100.00
61645;BME280;47553;52.428;13.382;2022-11-18T02:50:14;99820.88;;;0.06;100.00
61645;BME280;47553;52.428;13.382;2022-11-18T02:52:17;99805.09;;;0.08;100.00
61645;BME280;47553;52.428;13.382;2022-11-18T02:54:22;99815.00;;;-0.02;100.00
61645;BME280;47553;52.428;13.382;2022-11-18T02:56:25;99806.94;;;0.04;100.00
61645;BME280;47553;52.428;13.382;2022-11-18T02:58:27;99813.91;;;0.05;100.00
61645;BME280;47553;52.428;13.382;2022-11-18T03:00:30;99809.03;;;-0.07;100.00
61645;BME280;47553;52.428;13.382;2022-11-18T03:02:41;99803.13;;;-0.14;100.00
61645;BME280;47553;52.428;13.382;2022-11-18T03:04:44;99808.41;;;-0.15;100.00
61645;BME280;47553;52.428;13.382;2022-11-18T03:06:49;99793.41;;;-0.10;100.00
61645;BME280;47553;52.428;13.382;2022-11-18T03:09:00;99789.88;;;-0.09;100.00
61645;BME280;47553;52.428;13.382;2022-11-18T03:11:13;99794.84;;;0.00;100.00
61645;BME280;47553;52.428;13.382;2022-11-18T03:13:21;99790.72;;;-0.09;100.00
61645;BME280;47553;52.428;13.382;2022-11-18T03:15:32;99794.69;;;0.05;100.00
61645;BME280;47553;52.428;13.382;2022-11-18T03:17:46;99793.31;;;-0.07;100.00
61645;BME280;47553;52.428;13.382;2022-11-18T03:20:02;99785.63;;;-0.13;100.00
61645;BME280;47553;52.428;13.382;2022-11-18T03:22:10;99793.31;;;-0.07;100.00
61645;BME280;47553;52.428;13.382;2022-11-18T03:24:17;99797.78;;;-0.11;100.00
61645;BME280;47553;52.428;13.382;2022-11-18T03:26:25;99796.16;;;-0.15;100.00
61645;BME280;47553;52.428;13.382;2022-11-18T03:28:35;99799.91;;;-0.23;100.00
61645;BME280;47553;52.428;13.382;2022-11-18T03:30:45;99809.47;;;-0.22;100.00
61645;BME280;47553;52.428;13.382;2022-11-18T03:32:56;99802.34;;;-0.17;100.00
61645;BME280;47553;52.428;13.382;2022-11-18T03:35:03;99819.88;;;-0.19;100.00
61645;BME280;47553;52.428;13.382;2022-11-18T03:37:08;99817.56;;;-0.31;100.00
61645;BME280;47553;52.428;13.382;2022-11-18T03:39:13;99826.25;;;-0.29;100.00
61645;BME280;47553;52.428;13.382;2022-11-18T03:41:17;99818.38;;;-0.29;100.00
61645;BME280;47553;52.428;13.382;2022-11-18T03:43:23;99832.31;;;-0.27;100.00
61645;BME280;47553;52.428;13.382;2022-11-18T03:45:29;99830.59;;;-0.28;100.00
61645;BME280;47553;52.428;13.382;2022-11-18T03:47:36;99827.25;;;-0.33;100.00
61645;BME280;47553;52.428;13.382;2022-11-18T03:49:44;99829.03;;;-0.36;100.00
61645;BME280;47553;52.428;13.382;2022-11-18T03:51:51;99830.59;;;-0.28;100.00
61645;BME280;47553;52.428;13.382;2022-11-18T03:53:57;99838.97;;;-0.47;100.00
61645;BME280;47553;52.428;13.382;2022-11-18T03:56:05;99836.44;;;-0.50;100.00
61645;BME280;47553;52.428;13.382;2022-11-18T03:58:21;99839.53;;;-0.36;100.00
61645;BME280;47553;52.428;13.382;2022-11-18T04:00:28;99841.50;;;-0.44;100.00
61645;BME280;47553;52.428;13.382;2022-11-18T04:02:33;99819.03;;;-0.52;100.00
61645;BME280;47553;52.428;13.382;2022-11-18T04:04:35;99843.22;;;-0.43;100.00
61645;BME280;47553;52.428;13.382;2022-11-18T04:06:41;99848.47;;;-0.43;100.00
61645;BME280;47553;52.428;13.382;2022-11-18T04:08:49;99846.63;;;-0.39;100.00
61645;BME280;47553;52.428;13.382;2022-11-18T04:10:57;99843.13;;;-0.40;100.00
61645;BME280;47553;52.428;13.382;2022-11-18T04:13:03;99830.06;;;-0.41;100.00
61645;BME280;47553;52.428;13.382;2022-11-18T04:15:08;99840.13;;;-0.57;100.00
61645;BME280;47553;52.428;13.382;2022-11-18T04:17:11;99859.34;;;-0.58;100.00
61645;BME280;47553;52.428;13.382;2022-11-18T04:19:13;99848.06;;;-0.60;100.00
61645;BME280;47553;52.428;13.382;2022-11-18T04:21:14;99848.97;;;-0.61;100.00
61645;BME280;47553;52.428;13.382;2022-11-18T04:23:17;99845.69;;;-0.69;100.00
61645;BME280;47553;52.428;13.382;2022-11-18T04:25:19;99841.56;;;-0.78;100.00
61645;BME280;47553;52.428;13.382;2022-11-18T04:27:21;99863.19;;;-0.71;100.00
61645;BME280;47553;52.428;13.382;2022-11-18T04:29:22;99868.47;;;-0.73;100.00
61645;BME280;47553;52.428;13.382;2022-11-18T04:31:24;99872.66;;;-0.65;100.00
61645;BME280;47553;52.428;13.382;2022-11-18T04:33:25;99873.66;;;-0.71;100.00
61645;BME280;47553;52.428;13.382;2022-11-18T04:35:27;99872.94;;;-0.76;100.00
61645;BME280;47553;52.428;13.382;2022-11-18T04:37:29;99875.56;;;-0.76;100.00
61645;BME280;47553;52.428;13.382;2022-11-18T04:39:31;99878.75;;;-0.65;100.00
61645;BME280;47553;52.428;13.382;2022-11-18T04:41:33;99866.56;;;-0.66;100.00
61645;BME280;47553;52.428;13.382;2022-11-18T04:43:35;99881.53;;;-0.71;100.00
61645;BME280;47553;52.428;13.382;2022-11-18T04:45:36;99873.84;;;-0.77;100.00
61645;BME280;47553;52.428;13.382;2022-11-18T04:47:38;99887.34;;;-0.60;100.00
61645;BME280;47553;52.428;13.382;2022-11-18T04:49:39;99879.78;;;-0.71;100.00
61645;BME280;47553;52.428;13.382;2022-11-18T04:51:41;99892.66;;;-0.63;100.00
61645;BME280;47553;52.428;13.382;2022-11-18T04:53:43;99886.53;;;-0.62;100.00
61645;BME280;47553;52.428;13.382;2022-11-18T04:55:46;99881.66;;;-0.76;100.00
61645;BME280;47553;52.428;13.382;2022-11-18T04:57:48;99895.59;;;-0.75;100.00
61645;BME280;47553;52.428;13.382;2022-11-18T04:59:49;99892.97;;;-0.75;100.00
61645;BME280;47553;52.428;13.382;2022-11-18T05:01:52;99893.91;;;-0.78;100.00
61645;BME280;47553;52.428;13.382;2022-11-18T05:03:54;99889.69;;;-0.83;100.00
61645;BME280;47553;52.428;13.382;2022-11-18T05:05:55;99887.88;;;-0.80;100.00
61645;BME280;47553;52.428;13.382;2022-11-18T05:08:01;99896.56;;;-0.79;100.00
61645;BME280;47553;52.428;13.382;2022-11-18T05:10:03;99899.38;;;-0.87;100.00
61645;BME280;47553;52.428;13.382;2022-11-18T05:12:10;99892.34;;;-0.85;100.00
61645;BME280;47553;52.428;13.382;2022-11-18T05:14:12;99892.28;;;-0.82;100.00
61645;BME280;47553;52.428;13.382;2022-11-18T05:16:14;99892.97;;;-0.75;100.00
61645;BME280;47553;52.428;13.382;2022-11-18T05:18:15;99892.88;;;-0.71;100.00
61645;BME280;47553;52.428;13.382;2022-11-18T05:20:17;99873.09;;;-0.82;100.00
61645;BME280;47553;52.428;13.382;2022-11-18T05:22:19;99910.66;;;-0.83;100.00
61645;BME280;47553;52.428;13.382;2022-11-18T05:24:20;99897.50;;;-0.82;100.00
61645;BME280;47553;52.428;13.382;2022-11-18T05:26:22;99911.50;;;-0.83;100.00
61645;BME280;47553;52.428;13.382;2022-11-18T05:28:25;99902.03;;;-0.88;100.00
61645;BME280;47553;52.428;13.382;2022-11-18T05:30:27;99902.13;;;-0.91;100.00
61645;BME280;47553;52.428;13.382;2022-11-18T05:32:28;99905.25;;;-0.77;100.00
61645;BME280;47553;52.428;13.382;2022-11-18T05:34:30;99907.09;;;-0.81;100.00
61645;BME280;47553;52.428;13.382;2022-11-18T05:36:31;99910.78;;;-0.89;100.00
61645;BME280;47553;52.428;13.382;2022-11-18T05:38:33;99913.31;;;-0.85;100.00
61645;BME280;47553;52.428;13.382;2022-11-18T05:40:35;99914.91;;;-0.79;100.00
61645;BME280;47553;52.428;13.382;2022-11-18T05:42:37;99917.38;;;-0.73;100.00
61645;BME280;47553;52.428;13.382;2022-11-18T05:44:39;99905.25;;;-0.77;100.00
61645;BME280;47553;52.428;13.382;2022-11-18T05:46:41;99927.50;;;-0.59;100.00
61645;BME280;47553;52.428;13.382;2022-11-18T05:48:43;99929.34;;;-0.63;100.00
61645;BME280;47553;52.428;13.382;2022-11-18T05:50:45;99932.94;;;-0.67;100.00
61645;BME280;47553;52.428;13.382;2022-11-18T05:52:47;99923.69;;;-0.82;100.00
61645;BME280;47553;52.428;13.382;2022-11-18T05:54:49;99930.53;;;-0.76;100.00
61645;BME280;47553;52.428;13.382;2022-11-18T05:56:51;99936.44;;;-0.68;100.00
61645;BME280;47553;52.428;13.382;2022-11-18T05:58:53;99946.84;;;-0.65;100.00
61645;BME280;47553;52.428;13.382;2022-11-18T06:01:00;99955.91;;;-0.78;100.00
61645;BME280;47553;52.428;13.382;2022-11-18T06:03:07;99960.13;;;-0.73;100.00
61645;BME280;47553;52.428;13.382;2022-11-18T06:05:12;99949.38;;;-0.97;100.00
61645;BME280;47553;52.428;13.382;2022-11-18T06:07:17;99956.19;;;-0.90;100.00
61645;BME280;47553;52.428;13.382;2022-11-18T06:09:25;99949.56;;;-1.07;100.00
61645;BME280;47553;52.428;13.382;2022-11-18T06:11:30;99957.50;;;-1.10;100.00
61645;BME280;47553;52.428;13.382;2022-11-18T06:13:34;99961.63;;;-0.98;100.00
61645;BME280;47553;52.428;13.382;2022-11-18T06:15:40;99967.00;;;-1.06;100.00
61645;BME280;47553;52.428;13.382;2022-11-18T06:17:46;99965.09;;;-0.97;100.00
61645;BME280;47553;52.428;13.382;2022-11-18T06:19:50;99963.94;;;-0.86;100.00
61645;BME280;47553;52.428;13.382;2022-11-18T06:21:52;99971.38;;;-1.06;100.00
61645;BME280;47553;52.428;13.382;2022-11-18T06:23:54;99976.63;;;-1.08;100.00
61645;BME280;47553;52.428;13.382;2022-11-18T06:25:56;99976.81;;;-1.15;100.00
61645;BME280;47553;52.428;13.382;2022-11-18T06:27:59;99972.44;;;-1.15;100.00
61645;BME280;47553;52.428;13.382;2022-11-18T06:30:03;99977.53;;;-1.09;100.00
61645;BME280;47553;52.428;13.382;2022-11-18T06:32:05;99981.84;;;-1.06;100.00
61645;BME280;47553;52.428;13.382;2022-11-18T06:34:11;99971.69;;;-1.20;100.00
61645;BME280;47553;52.428;13.382;2022-11-18T06:36:12;99979.31;;;-1.11;100.00
61645;BME280;47553;52.428;13.382;2022-11-18T06:38:14;99982.59;;;0.37;100.00
61645;BME280;47553;52.428;13.382;2022-11-18T06:40:16;99980.53;;;0.77;100.00
61645;BME280;47553;52.428;13.382;2022-11-18T06:42:17;99993.66;;;1.61;100.00
61645;BME280;47553;52.428;13.382;2022-11-18T06:44:19;99986.22;;;1.19;95.22
61645;BME280;47553;52.428;13.382;2022-11-18T06:46:21;99986.59;;;0.79;94.59
61645;BME280;47553;52.428;13.382;2022-11-18T06:48:22;99991.69;;;0.23;94.92
61645;BME280;47553;52.428;13.382;2022-11-18T06:50:25;99997.28;;;-0.21;97.48
61645;BME280;47553;52.428;13.382;2022-11-18T06:52:27;99997.56;;;-0.69;99.50
61645;BME280;47553;52.428;13.382;2022-11-18T06:54:28;100003.19;;;-0.84;100.00
61645;BME280;47553;52.428;13.382;2022-11-18T06:56:30;100011.91;;;-0.84;100.00
61645;BME280;47553;52.428;13.382;2022-11-18T06:58:32;100004.34;;;-0.97;100.00
61645;BME280;47553;52.428;13.382;2022-11-18T07:00:33;100017.47;;;-1.01;100.00
61645;BME280;47553;52.428;13.382;2022-11-18T07:02:35;100016.22;;;-1.23;100.00
61645;BME280;47553;52.428;13.382;2022-11-18T07:04:36;100022.72;;;-1.41;100.00
61645;BME280;47553;52.428;13.382;2022-11-18T07:06:39;100023.38;;;-1.31;100.00
61645;BME280;47553;52.428;13.382;2022-11-18T07:08:42;100032.28;;;-1.40;100.00
61645;BME280;47553;52.428;13.382;2022-11-18T07:10:51;100030.84;;;-1.54;100.00
61645;BME280;47553;52.428;13.382;2022-11-18T07:12:52;100042.25;;;-1.58;100.00
61645;BME280;47553;52.428;13.382;2022-11-18T07:14:54;100043.09;;;-1.56;100.00
61645;BME280;47553;52.428;13.382;2022-11-18T07:16:55;100043.16;;;-1.59;100.00
61645;BME280;47553;52.428;13.382;2022-11-18T07:18:57;100042.59;;;-1.77;100.00
61645;BME280;47553;52.428;13.382;2022-11-18T07:21:02;100043.41;;;-1.75;100.00
61645;BME280;47553;52.428;13.382;2022-11-18T07:23:05;100045.13;;;-1.71;100.00
61645;BME280;47553;52.428;13.382;2022-11-18T07:25:08;100032.81;;;-1.66;100.00
61645;BME280;47553;52.428;13.382;2022-11-18T07:27:10;100043.00;;;-1.52;100.00
61645;BME280;47553;52.428;13.382;2022-11-18T07:29:11;100044.56;;;-1.43;100.00
61645;BME280;47553;52.428;13.382;2022-11-18T07:31:14;100041.91;;;-1.42;100.00
61645;BME280;47553;52.428;13.382;2022-11-18T07:33:16;100037.56;;;-1.41;100.00
61645;BME280;47553;52.428;13.382;2022-11-18T07:35:18;100046.28;;;-1.42;100.00
61645;BME280;47553;52.428;13.382;2022-11-18T07:37:19;100042.03;;;-1.48;100.00
61645;BME280;47553;52.428;13.382;2022-11-18T07:39:22;100041.13;;;-1.45;100.00
61645;BME280;47553;52.428;13.382;2022-11-18T07:41:25;100050.72;;;-1.46;100.00
61645;BME280;47553;52.428;13.382;2022-11-18T07:43:27;100042.66;;;-1.35;100.00
61645;BME280;47553;52.428;13.382;2022-11-18T07:45:29;100043.47;;;-1.32;100.00
61645;BME280;47553;52.428;13.382;2022-11-18T07:47:33;100053.31;;;-1.44;100.00
61645;BME280;47553;52.428;13.382;2022-11-18T07:49:34;100054.66;;;-1.25;100.00
61645;BME280;47553;52.428;13.382;2022-11-18T07:51:37;100060.00;;;-1.31;100.00
61645;BME280;47553;52.428;13.382;2022-11-18T07:53:39;100067.09;;;-1.36;100.00
61645;BME280;47553;52.428;13.382;2022-11-18T07:55:42;100057.53;;;-1.37;100.00
61645;BME280;47553;52.428;13.382;2022-11-18T07:57:44;100052.13;;;-1.29;99.97
61645;BME280;47553;52.428;13.382;2022-11-18T07:59:45;100071.94;;;-1.18;100.00
61645;BME280;47553;52.428;13.382;2022-11-18T08:01:47;100079.97;;;-1.25;100.00
61645;BME280;47553;52.428;13.382;2022-11-18T08:03:49;100085.22;;;-1.27;100.00
61645;BME280;47553;52.428;13.382;2022-11-18T08:05:50;100076.28;;;-1.17;99.21
61645;BME280;47553;52.428;13.382;2022-11-18T08:07:52;100074.56;;;-1.18;99.83
61645;BME280;47553;52.428;13.382;2022-11-18T08:09:53;100075.34;;;-1.13;98.23
61645;BME280;47553;52.428;13.382;2022-11-18T08:11:56;100073.47;;;-1.08;97.64
61645;BME280;47553;52.428;13.382;2022-11-18T08:13:58;100082.16;;;-1.06;97.11
61645;BME280;47553;52.428;13.382;2022-11-18T08:16:00;100082.53;;;-1.24;97.24
61645;BME280;47553;52.428;13.382;2022-11-18T08:18:05;100069.53;;;-1.27;96.57
61645;BME280;47553;52.428;13.382;2022-11-18T08:20:14;100087.78;;;-1.24;96.70
61645;BME280;47553;52.428;13.382;2022-11-18T08:22:15;100098.56;;;-1.39;96.47
61645;BME280;47553;52.428;13.382;2022-11-18T08:24:17;100081.94;;;-1.37;96.85
61645;BME280;47553;52.428;13.382;2022-11-18T08:26:19;100079.16;;;-1.29;96.18
61645;BME280;47553;52.428;13.382;2022-11-18T08:28:22;100075.41;;;-1.16;95.69
61645;BME280;47553;52.428;13.382;2022-11-18T08:30:23;100080.50;;;-1.10;96.09
61645;BME280;47553;52.428;13.382;2022-11-18T08:32:25;100082.94;;;-1.01;95.08
61645;BME280;47553;52.428;13.382;2022-11-18T08:34:27;100078.59;;;-1.02;95.57
61645;BME280;47553;52.428;13.382;2022-11-18T08:36:30;100097.88;;;-1.06;94.77
61645;BME280;47553;52.428;13.382;2022-11-18T08:38:32;100099.56;;;-1.03;93.47
61645;BME280;47553;52.428;13.382;2022-11-18T08:40:34;100103.22;;;-1.12;94.07
61645;BME280;47553;52.428;13.382;2022-11-18T08:42:36;100108.34;;;-1.06;93.95
61645;BME280;47553;52.428;13.382;2022-11-18T08:44:39;100108.41;;;-1.09;94.17
61645;BME280;47553;52.428;13.382;2022-11-18T08:46:40;100110.22;;;-1.12;94.61
61645;BME280;47553;52.428;13.382;2022-11-18T08:48:42;100114.34;;;-1.01;95.21
61645;BME280;47553;52.428;13.382;2022-11-18T08:50:43;100109.91;;;-0.95;94.64
61645;BME280;47553;52.428;13.382;2022-11-18T08:52:45;100121.22;;;-0.95;93.14
61645;BME280;47553;52.428;13.382;2022-11-18T08:54:48;100131.94;;;-1.07;93.90
61645;BME280;47553;52.428;13.382;2022-11-18T08:56:49;100113.72;;;-1.13;92.96
61645;BME280;47553;52.428;13.382;2022-11-18T08:58:51;100123.13;;;-1.03;92.98
61645;BME280;47553;52.428;13.382;2022-11-18T09:00:55;100125.94;;;-1.14;92.61
61645;BME280;47553;52.428;13.382;2022-11-18T09:02:56;100138.44;;;-1.28;92.79
61645;BME280;47553;52.428;13.382;2022-11-18T09:04:58;100137.72;;;-1.35;93.34
61645;BME280;47553;52.428;13.382;2022-11-18T09:07:00;100136.91;;;-1.38;93.21
61645;BME280;47553;52.428;13.382;2022-11-18T09:09:02;100144.47;;;-1.24;93.02
61645;BME280;47553;52.428;13.382;2022-11-18T09:11:08;100153.97;;;-1.19;93.83
61645;BME280;47553;52.428;13.382;2022-11-18T09:13:10;100142.50;;;-1.13;93.47
61645;BME280;47553;52.428;13.382;2022-11-18T09:15:32;100149.56;;;-1.17;92.98
61645;BME280;47553;52.428;13.382;2022-11-18T09:17:35;100165.00;;;-1.03;93.76
61645;BME280;47553;52.428;13.382;2022-11-18T09:19:36;100167.94;;;-1.20;90.98
61645;BME280;47553;52.428;13.382;2022-11-18T09:21:54;100163.72;;;-1.27;93.78
61645;BME280;47553;52.428;13.382;2022-11-18T09:23:55;100154.16;;;-1.28;92.48
61645;BME280;47553;52.428;13.382;2022-11-18T09:25:57;100167.03;;;-1.17;92.18
61645;BME280;47553;52.428;13.382;2022-11-18T09:27:59;100172.56;;;-1.34;92.22
61645;BME280;47553;52.428;13.382;2022-11-18T09:30:01;100179.97;;;-1.57;92.13
61645;BME280;47553;52.428;13.382;2022-11-18T09:32:03;100187.72;;;-1.51;93.52
61645;BME280;47553;52.428;13.382;2022-11-18T09:34:05;100188.69;;;-1.57;93.13
61645;BME280;47553;52.428;13.382;2022-11-18T09:36:11;100190.47;;;-1.59;93.47
61645;BME280;47553;52.428;13.382;2022-11-18T09:38:13;100195.78;;;-1.63;93.80
61645;BME280;47553;52.428;13.382;2022-11-18T09:40:15;100184.31;;;-1.56;94.05
61645;BME280;47553;52.428;13.382;2022-11-18T09:42:33;100185.94;;;-1.49;95.21
61645;BME280;47553;52.428;13.382;2022-11-18T09:44:46;100203.53;;;-1.57;94.75
61645;BME280;47553;52.428;13.382;2022-11-18T09:47:01;100196.63;;;-1.61;94.52
61645;BME280;47553;52.428;13.382;2022-11-18T09:49:14;100193.19;;;-1.65;94.93
61645;BME280;47553;52.428;13.382;2022-11-18T09:51:17;100186.34;;;-1.72;93.70
61645;BME280;47553;52.428;13.382;2022-11-18T09:53:22;100199.06;;;-1.52;94.31
61645;BME280;47553;52.428;13.382;2022-11-18T09:55:25;100194.50;;;-1.41;94.67
61645;BME280;47553;52.428;13.382;2022-11-18T09:57:33;100203.25;;;-1.42;94.52
61645;BME280;47553;52.428;13.382;2022-11-18T09:59:38;100200.59;;;-1.41;94.04
61645;BME280;47553;52.428;13.382;2022-11-18T10:01:40;100199.03;;;-1.51;94.76
61645;BME280;47553;52.428;13.382;2022-11-18T10:03:42;100204.00;;;-1.36;96.02
61645;BME280;47553;52.428;13.382;2022-11-18T10:05:46;100211.66;;;-1.25;95.20
61645;BME280;47553;52.428;13.382;2022-11-18T10:08:11;100218.13;;;-1.46;94.85
61645;BME280;47553;52.428;13.382;2022-11-18T10:10:21;100213.78;;;-1.47;95.31
61645;BME280;47553;52.428;13.382;2022-11-18T10:12:29;100227.06;;;-1.57;95.90
61645;BME280;47553;52.428;13.382;2022-11-18T10:14:56;100222.97;;;-1.74;97.01
61645;BME280;47553;52.428;13.382;2022-11-18T10:17:08;100221.13;;;-1.69;96.77
61645;BME280;47553;52.428;13.382;2022-11-18T10:19:21;100234.91;;;-1.57;96.39
61645;BME280;47553;52.428;13.382;2022-11-18T10:21:37;100224.38;;;-1.54;95.10
61645;BME280;47553;52.428;13.382;2022-11-18T10:23:50;100220.19;;;-1.63;95.98
61645;BME280;47553;52.428;13.382;2022-11-18T10:25:53;100216.69;;;-1.63;94.72
61645;BME280;47553;52.428;13.382;2022-11-18T10:27:55;100214.28;;;-1.77;94.69
61645;BME280;47553;52.428;13.382;2022-11-18T10:30:10;100225.31;;;-1.57;95.82
61645;BME280;47553;52.428;13.382;2022-11-18T10:32:14;100228.66;;;-1.49;94.78
61645;BME280;47553;52.428;13.382;2022-11-18T10:34:17;100234.91;;;-1.57;93.49
61645;BME280;47553;52.428;13.382;2022-11-18T10:36:25;100229.66;;;-1.57;94.74
61645;BME280;47553;52.428;13.382;2022-11-18T10:38:29;100234.91;;;-1.57;95.14
61645;BME280;47553;52.428;13.382;2022-11-18T10:40:31;100231.50;;;-1.62;94.62
61645;BME280;47553;52.428;13.382;2022-11-18T10:42:39;100231.59;;;-1.69;94.48
61645;BME280;47553;52.428;13.382;2022-11-18T10:44:41;100223.00;;;-1.77;94.47